METAR Data
IDs: Format: Raw Decoded Include TAF

Data at: 0111 UTC 25 Mar 2019

KOLZ 250055Z AUTO 05006KT 5SM BR BKN022 OVC050 06/06 A3010 RMK AO2 PWINO
KOLZ 250035Z AUTO 06007KT 9SM OVC019 06/06 A3009 RMK AO2 PWINO
KOLZ 250015Z AUTO 06008KT 7SM OVC019 07/07 A3009 RMK AO2 PWINO
KOLZ 242355Z AUTO 05009KT 7SM OVC017 07/07 A3008 RMK AO2 PWINO
KOLZ 242335Z AUTO 06009KT 7SM OVC015 07/07 A3007 RMK AO2 PWINO
KOLZ 242315Z AUTO 05009KT 5SM BR OVC013 07/07 A3007 RMK AO2 PWINO
KOLZ 242255Z AUTO 04009KT 3SM BR OVC011 07/07 A3006 RMK AO2 PWINO
KOLZ 242235Z AUTO 06009KT 6SM BR BKN009 BKN032 BKN038 07/07 A3006 RMK AO2 PWINO
KOLZ 242215Z AUTO 07013KT 4SM BR BKN008 BKN013 07/07 A3005 RMK AO2 PWINO
KOLZ 242155Z AUTO 06013KT 6SM BR BKN005 OVC009 07/07 A3005 RMK AO2 PWINO
KOLZ 242135Z AUTO 06010KT 4SM BR OVC004 07/07 A3005 RMK AO2 PWINO
KOLZ 242115Z AUTO 06009KT 3SM BR BKN004 BKN010 BKN016 07/07 A3005 RMK AO2 PWINO
KOLZ 242055Z AUTO 05011KT 1 3/4SM BR OVC004 07/07 A3004 RMK AO2 PWINO
KOLZ 242035Z AUTO 05007KT 2SM BR OVC003 07/07 A3004 RMK AO2 PWINO
KOLZ 242015Z AUTO 05009KT 1 1/2SM BR OVC003 07/07 A3003 RMK AO2 PWINO
KOLZ 241955Z AUTO 05007KT 3/4SM BR OVC003 07/07 A3003 RMK AO2 PWINO
KOLZ 241935Z AUTO 05006KT 1SM BR OVC004 07/07 A3003 RMK AO2 PWINO
KOLZ 241915Z AUTO 05006KT 1 3/4SM BR OVC004 07/07 A3004 RMK AO2 PWINO
KOLZ 241855Z AUTO 07006KT 3SM BR OVC005 07/07 A3003 RMK AO2 PWINO
KOLZ 241835Z AUTO 08007KT 4SM BR OVC005 07/07 A3003 RMK AO2 PWINO
KOLZ 241815Z AUTO 08006KT 6SM BR OVC005 07/07 A3003 RMK AO2 PWINO
KOLZ 241755Z AUTO 08009KT 4SM BR OVC005 07/07 A3004 RMK AO2 PWINO
KOLZ 241735Z AUTO 08007KT 2 1/2SM BR OVC004 07/07 A3004 RMK AO2 PWINO
KOLZ 241715Z AUTO 09010KT 2SM BR OVC004 06/06 A3004 RMK AO2 PWINO
KOLZ 241655Z AUTO 07008KT 1 1/4SM BR OVC004 06/06 A3005 RMK AO2 PWINO
KOLZ 241635Z AUTO 06009KT 2 1/2SM BR BKN006 OVC016 06/06 A3005 RMK AO2 PWINO
KOLZ 241615Z AUTO 10006KT 6SM BR OVC016 06/06 A3006 RMK AO2 PWINO
KOLZ 241555Z AUTO 07007KT 5SM BR BKN019 06/06 A3005 RMK AO2 PWINO
KOLZ 241535Z AUTO 07006KT 6SM BR BKN020 06/06 A3005 RMK AO2 PWINO
KOLZ 241515Z AUTO 07004KT 6SM BR OVC021 06/06 A3006 RMK AO2 PWINO
KOLZ 241455Z AUTO 07004KT 8SM OVC022 06/06 A3006 RMK AO2 PWINO
KOLZ 241435Z AUTO 10007KT 7SM OVC023 06/06 A3005 RMK AO2 PWINO
KOLZ 241415Z AUTO 09006KT 6SM BR OVC024 05/06 A3005 RMK AO2 PWINO
KOLZ 241355Z AUTO 10006KT 5SM BR OVC024 05/05 A3005 RMK AO2 PWINO
KOLZ 241335Z AUTO 11008KT 2 1/2SM BR BKN025 OVC035 05/05 A3006 RMK AO2 PWINO
KOLZ 241315Z AUTO 11008KT 1 3/4SM BR OVC028 04/04 A3006 RMK AO2 PWINO
KOLZ 241255Z AUTO 13005KT 3SM BR OVC029 04/04 A3007 RMK AO2 PWINO
KOLZ 241235Z AUTO 12007KT 7SM OVC030 04/04 A3006 RMK AO2 PWINO
KOLZ 241215Z AUTO 13006KT 7SM OVC031 04/04 A3006 RMK AO2 PWINO
KOLZ 241155Z AUTO 12004KT 8SM OVC032 04/04 A3006 RMK AO2 PWINO
KOLZ 241135Z AUTO 14005KT 4SM BR OVC033 04/04 A3005 RMK AO2 PWINO
KOLZ 241115Z AUTO 14006KT 5SM BR BKN036 OVC050 04/04 A3005 RMK AO2 PWINO
KOLZ 241055Z AUTO 12008KT 10SM FEW040 OVC050 04/04 A3005 RMK AO2 PWINO
KOLZ 241035Z AUTO 12008KT 9SM FEW048 BKN055 OVC065 04/04 A3005 RMK AO2 PWINO
KOLZ 241015Z AUTO 12008KT 10SM BKN048 OVC065 04/04 A3006 RMK AO2 PWINO
KOLZ 240955Z AUTO 12008KT 10SM OVC050 04/04 A3006 RMK AO2 PWINO
KOLZ 240935Z AUTO 12006KT 10SM OVC050 04/04 A3007 RMK AO2 PWINO
KOLZ 240915Z AUTO 12008KT 9SM OVC048 04/04 A3007 RMK AO2 PWINO
KOLZ 240855Z AUTO 12009KT 10SM FEW038 OVC047 04/04 A3008 RMK AO2 PWINO
KOLZ 240835Z AUTO 12009KT 8SM FEW038 OVC049 04/04 A3009 RMK AO2 PWINO
KOLZ 240815Z AUTO 13010KT 10SM OVC050 05/04 A3010 RMK AO2 PWINO
KOLZ 240755Z AUTO 12008KT 10SM FEW046 OVC055 04/04 A3010 RMK AO2 PWINO
KOLZ 240735Z AUTO 12006KT 10SM BKN045 OVC060 04/04 A3011 RMK AO2 PWINO
KOLZ 240715Z AUTO 13007KT 10SM SCT037 OVC046 05/04 A3011 RMK AO2 PWINO
KOLZ 240655Z AUTO 12006KT 9SM FEW030 SCT036 BKN048 05/04 A3011 RMK AO2 PWINO
KOLZ 240635Z AUTO 12006KT 8SM SCT033 SCT039 OVC050 05/04 A3011 RMK AO2 PWINO
KOLZ 240615Z AUTO 12005KT 10SM SCT032 BKN048 OVC055 05/03 A3011 RMK AO2 PWINO
KOLZ 240555Z AUTO 12005KT 10SM FEW034 SCT048 BKN055 06/03 A3011 RMK AO2 PWINO
KOLZ 240535Z AUTO 12006KT 10SM FEW050 SCT060 OVC070 06/03 A3011 RMK AO2 PWINO
KOLZ 240515Z AUTO 13007KT 10SM BKN065 OVC075 06/02 A3011 RMK AO2 PWINO
KOLZ 240455Z AUTO 13007KT 10SM SCT055 BKN065 OVC075 06/03 A3012 RMK AO2 PWINO
KOLZ 240435Z AUTO 12006KT 10SM SCT060 OVC075 06/03 A3012 RMK AO2 PWINO
KOLZ 240415Z AUTO 13006KT 10SM BKN080 OVC095 05/03 A3013 RMK AO2 PWINO
KOLZ 240355Z AUTO 13006KT 10SM BKN080 OVC100 06/03 A3013 RMK AO2 PWINO
KOLZ 240335Z AUTO 14005KT 10SM OVC100 06/03 A3013 RMK AO2 PWINO
KOLZ 240315Z AUTO 14006KT 10SM FEW075 OVC100 06/03 A3013 RMK AO2 PWINO
KOLZ 240255Z AUTO 14005KT 10SM OVC100 06/03 A3013 RMK AO2 PWINO
KOLZ 240235Z AUTO 13005KT 10SM OVC100 06/03 A3013 RMK AO2 PWINO
KOLZ 240215Z AUTO 13005KT 9SM OVC100 06/03 A3013 RMK AO2 PWINO
KOLZ 240155Z AUTO 12008KT 10SM OVC100 07/03 A3013 RMK AO2 PWINO
KOLZ 240135Z AUTO 12007KT 10SM OVC100 07/03 A3013 RMK AO2 PWINO
KOLZ 240115Z AUTO 13007KT 10SM OVC100 07/03 A3014 RMK AO2 PWINO
KOLZ 240055Z AUTO 12006KT 10SM FEW070 BKN085 OVC100 07/03 A3014 RMK AO2 PWINO
KOLZ 240035Z AUTO 12006KT 10SM OVC090 07/03 A3014 RMK AO2 PWINO
KOLZ 240015Z AUTO 13006KT 10SM BKN095 BKN130 08/03 A3014 RMK AO2 PWINO
KOLZ 232355Z AUTO 14007KT 10SM SCT120 08/03 A3015 RMK AO2 PWINO
KOLZ 232335Z AUTO 13007KT 10SM FEW120 09/03 A3015 RMK AO2 PWINO
KOLZ 232315Z AUTO 13007KT 10SM FEW120 10/03 A3015 RMK AO2 PWINO
KOLZ 232255Z AUTO 13006KT 10SM CLR 10/03 A3016 RMK AO2 PWINO
KOLZ 232235Z AUTO 16008KT 10SM CLR 11/02 A3016 RMK AO2 PWINO
KOLZ 232215Z AUTO 14008KT 10SM CLR 11/02 A3016 RMK AO2 PWINO
KOLZ 232155Z AUTO 17007KT 10SM CLR 11/01 A3017 RMK AO2 PWINO
KOLZ 232135Z AUTO 17008KT 10SM CLR 11/02 A3017 RMK AO2 PWINO
KOLZ 232115Z AUTO 19007KT 10SM CLR 11/02 A3018 RMK AO2 PWINO
KOLZ 232055Z AUTO 18008KT 10SM CLR 11/01 A3018 RMK AO2 PWINO
KOLZ 232035Z AUTO VRB06KT 10SM CLR 11/M00 A3018 RMK AO2 PWINO
KOLZ 232015Z AUTO 16009G14KT 10SM CLR 11/01 A3018 RMK AO2 PWINO
KOLZ 231955Z AUTO 17007G13KT 10SM CLR 11/01 A3019 RMK AO2 PWINO
KOLZ 231935Z AUTO 18009KT 150V210 10SM CLR 11/02 A3019 RMK AO2 PWINO
KOLZ 231915Z AUTO 18010KT 10SM CLR 11/01 A3021 RMK AO2 PWINO
KOLZ 231855Z AUTO 18009KT 10SM CLR 11/01 A3021 RMK AO2 PWINO
KOLZ 231835Z AUTO 17010KT 10SM CLR 11/01 A3022 RMK AO2 PWINO
KOLZ 231815Z AUTO 17010KT 10SM CLR 10/02 A3022 RMK AO2 PWINO
KOLZ 231755Z AUTO 16011KT 10SM CLR 10/02 A3023 RMK AO2 PWINO
KOLZ 231735Z AUTO 19011KT 10SM CLR 09/02 A3023 RMK AO2 PWINO
KOLZ 231715Z AUTO 18009KT 10SM CLR 08/03 A3024 RMK AO2 PWINO
KOLZ 231655Z AUTO 18009KT 10SM CLR 08/03 A3024 RMK AO2 PWINO
KOLZ 231635Z AUTO 18011KT 10SM CLR 07/02 A3024 RMK AO2 PWINO
KOLZ 231615Z AUTO 18010KT 10SM CLR 07/02 A3025 RMK AO2 PWINO
KOLZ 231555Z AUTO 18008KT 10SM CLR 06/02 A3025 RMK AO2 PWINO
KOLZ 231535Z AUTO 16009KT 10SM CLR 05/02 A3025 RMK AO2 PWINO
KOLZ 231515Z AUTO 16007KT 10SM CLR 04/02 A3025 RMK AO2 PWINO
KOLZ 231455Z AUTO 15007KT 10SM CLR 03/01 A3025 RMK AO2 PWINO
KOLZ 231435Z AUTO 16008KT 10SM CLR 03/01 A3025 RMK AO2 PWINO
KOLZ 231415Z AUTO 15008KT 10SM CLR 02/00 A3025 RMK AO2 PWINO
KOLZ 231355Z AUTO 16007KT 10SM CLR 01/M00 A3027 RMK AO2 PWINO
KOLZ 231335Z AUTO 15008KT 10SM CLR 00/M01 A3027 RMK AO2 PWINO
KOLZ 231315Z AUTO 15007KT 10SM CLR M00/M01 A3027 RMK AO2 PWINO